Time;durP1;ratioP1;P1;durP2;ratioP2;P2;SDS_P1;SDS_P2;PMS_P1;PMS_P2;Temp;Humidity;BMP_temperature;BMP_pressure;BME280_temperature;BME280_humidity;BME280_pressure;Samples;Min_cycle;Max_cycle;Signal;HPM_P1;HPM_P2
2022/09/14 00:01:42;;;;;;;4.10;1.27;;;18.00;63.60;;;;;;5070563;28;20490;-55
2022/09/14 00:04:13;;;;;;;3.88;1.10;;;18.10;63.30;;;;;;5070253;28;20016;-54
2022/09/14 00:06:43;;;;;;;4.05;1.20;;;18.10;63.30;;;;;;5069017;28;20032;-55
2022/09/14 00:09:20;;;;;;;3.40;1.02;;;18.10;63.30;;;;;;5069705;28;20464;-55
2022/09/14 00:11:48;;;;;;;5.18;1.17;;;18.10;63.20;;;;;;5069844;28;20036;-54
2022/09/14 00:14:18;;;;;;;4.30;1.20;;;18.10;63.30;;;;;;5069492;28;20047;-56
2022/09/14 00:16:47;;;;;;;4.10;1.23;;;18.10;63.20;;;;;;5069933;28;20086;-55
2022/09/14 00:19:24;;;;;;;3.60;1.20;;;18.20;62.90;;;;;;5068164;28;20067;-55
2022/09/14 00:21:55;;;;;;;4.68;1.05;;;18.20;63.00;;;;;;5069817;28;20095;-55
2022/09/14 00:24:25;;;;;;;6.95;1.17;;;18.20;63.00;;;;;;5072466;28;20029;-55
2022/09/14 00:26:54;;;;;;;3.30;1.20;;;18.10;63.00;;;;;;5073826;28;20561;-56
2022/09/14 00:29:22;;;;;;;4.47;1.00;;;18.10;63.00;;;;;;5073291;28;20037;-55
2022/09/14 00:31:51;;;;;;;5.68;1.00;;;18.20;63.00;;;;;;5073626;28;20025;-55
2022/09/14 00:34:20;;;;;;;5.00;1.10;;;18.20;63.00;;;;;;5055576;28;20467;-56
2022/09/14 00:36:50;;;;;;;7.15;1.00;;;18.10;63.00;;;;;;5073574;28;20056;-56
2022/09/14 00:39:20;;;;;;;3.45;1.08;;;18.20;62.90;;;;;;5073100;28;20127;-56
2022/09/14 00:41:50;;;;;;;3.22;1.13;;;18.10;62.90;;;;;;5073428;28;20120;-54
2022/09/14 00:44:18;;;;;;;3.72;0.95;;;18.10;62.80;;;;;;5072785;28;20025;-55
2022/09/14 00:46:49;;;;;;;5.07;1.20;;;18.10;62.80;;;;;;5073331;28;20024;-55
2022/09/14 00:49:23;;;;;;;6.45;1.10;;;18.10;62.90;;;;;;5071927;28;20105;-56
2022/09/14 00:52:02;;;;;;;3.45;1.02;;;18.10;62.80;;;;;;5073344;28;20025;-55
2022/09/14 00:54:31;;;;;;;5.82;1.05;;;18.00;62.90;;;;;;5071916;28;20086;-55
2022/09/14 00:57:01;;;;;;;2.78;1.02;;;18.10;63.10;;;;;;5073264;28;20016;-56
2022/09/14 00:59:34;;;;;;;1.80;0.90;;;18.10;63.20;;;;;;5072635;28;20028;-55
2022/09/14 01:02:03;;;;;;;3.47;1.10;;;18.10;63.30;;;;;;5073685;28;20324;-55
2022/09/14 01:04:31;;;;;;;3.58;1.00;;;18.10;63.20;;;;;;5071775;28;20356;-55
2022/09/14 01:07:14;;;;;;;5.32;1.10;;;18.10;63.00;;;;;;5072989;28;20067;-55
2022/09/14 01:10:02;;;;;;;4.32;1.20;;;18.10;63.00;;;;;;5072619;28;20509;-55
2022/09/14 01:12:49;;;;;;;3.85;1.10;;;18.00;62.60;;;;;;5072944;28;20025;-55
2022/09/14 01:15:44;;;;;;;3.53;0.98;;;18.10;62.60;;;;;;5072937;28;20029;-55
2022/09/14 01:18:35;;;;;;;6.38;1.08;;;18.10;62.30;;;;;;5072790;28;20029;-56
2022/09/14 01:21:15;;;;;;;3.45;0.90;;;18.10;62.10;;;;;;5071884;28;20039;-56
2022/09/14 01:24:02;;;;;;;5.10;1.10;;;18.10;62.10;;;;;;5071105;28;20416;-55
2022/09/14 01:26:49;;;;;;;4.07;1.00;;;18.10;62.00;;;;;;5072905;28;20040;-56
2022/09/14 01:29:24;;;;;;;4.72;1.30;;;18.10;61.90;;;;;;5072085;28;20024;-56
2022/09/14 01:32:01;;;;;;;3.22;1.10;;;18.10;61.70;;;;;;5072330;28;20028;-55
2022/09/14 01:34:49;;;;;;;3.88;1.00;;;18.10;61.50;;;;;;5071251;28;20069;-56
2022/09/14 01:37:39;;;;;;;3.78;1.00;;;18.20;61.70;;;;;;5072372;28;20078;-55
2022/09/14 01:40:15;;;;;;;6.68;1.10;;;18.20;61.80;;;;;;5071015;28;20051;-56
2022/09/14 01:42:47;;;;;;;8.02;1.13;;;18.20;61.80;;;;;;5071935;28;20685;-55
2022/09/14 01:45:18;;;;;;;4.28;1.05;;;18.20;61.60;;;;;;5072417;28;20028;-56
2022/09/14 01:48:02;;;;;;;5.10;1.08;;;18.20;61.90;;;;;;5072264;28;20536;-56
2022/09/14 01:50:39;;;;;;;4.43;1.00;;;18.20;62.00;;;;;;5072224;28;20036;-56
2022/09/14 01:53:25;;;;;;;5.05;1.30;;;18.20;61.80;;;;;;5072090;28;20023;-56
2022/09/14 01:55:59;;;;;;;5.15;1.25;;;18.20;62.00;;;;;;5072216;28;20040;-55
2022/09/14 01:58:34;;;;;;;4.38;1.10;;;18.20;62.20;;;;;;5071632;28;20029;-56
2022/09/14 02:01:07;;;;;;;3.35;1.00;;;18.20;62.30;;;;;;5072358;28;20047;-56
2022/09/14 02:03:47;;;;;;;3.22;0.95;;;18.20;62.30;;;;;;5071302;28;20028;-55
2022/09/14 02:06:47;;;;;;;4.75;0.95;;;18.20;62.00;;;;;;5072067;28;20056;-55
2022/09/14 02:09:25;;;;;;;2.42;0.90;;;18.20;63.00;;;;;;5071867;28;20469;-55
2022/09/14 02:11:59;;;;;;;2.97;1.00;;;18.20;62.40;;;;;;5071951;28;20048;-55
2022/09/14 02:14:28;;;;;;;3.00;1.00;;;18.20;62.50;;;;;;5070050;28;20031;-55
2022/09/14 02:16:57;;;;;;;3.75;1.00;;;18.20;62.10;;;;;;5071654;28;20033;-54
2022/09/14 02:19:30;;;;;;;3.85;1.15;;;18.20;62.20;;;;;;5070077;28;20068;-54
2022/09/14 02:21:59;;;;;;;3.28;1.00;;;18.20;62.40;;;;;;5071485;28;20025;-55
2022/09/14 02:24:27;;;;;;;4.10;1.10;;;18.20;62.40;;;;;;5071304;28;20095;-55
2022/09/14 02:26:58;;;;;;;4.13;1.20;;;18.20;62.50;;;;;;5071491;28;20024;-55
2022/09/14 02:29:26;;;;;;;3.17;0.93;;;18.20;62.40;;;;;;5069369;28;20647;-55
2022/09/14 02:31:54;;;;;;;4.20;0.90;;;18.20;62.30;;;;;;5071507;28;20029;-54
2022/09/14 02:34:28;;;;;;;2.28;0.88;;;18.30;62.30;;;;;;5071167;28;20073;-55
2022/09/14 02:37:15;;;;;;;3.75;1.00;;;18.30;62.30;;;;;;5069762;28;20628;-55
2022/09/14 02:40:28;;;;;;;3.88;0.95;;;18.30;62.30;;;;;;5070775;28;20084;-55
2022/09/14 02:43:14;;;;;;;4.50;1.10;;;18.40;62.30;;;;;;5070724;28;20813;-55
2022/09/14 02:46:12;;;;;;;4.63;1.20;;;18.30;62.30;;;;;;5070233;28;20036;-55
2022/09/14 02:48:40;;;;;;;3.00;0.98;;;18.30;62.50;;;;;;5044001;28;20029;-55
2022/09/14 02:51:19;;;;;;;4.57;1.00;;;18.30;62.60;;;;;;5070950;28;20123;-55
2022/09/14 02:54:15;;;;;;;4.28;1.13;;;18.30;62.70;;;;;;5070738;28;20028;-56
2022/09/14 02:56:44;;;;;;;3.30;0.90;;;18.30;62.80;;;;;;5069725;28;20560;-55
2022/09/14 02:59:12;;;;;;;2.45;0.93;;;18.30;62.90;;;;;;5070274;28;20039;-55
2022/09/14 03:01:41;;;;;;;3.67;1.10;;;18.30;63.00;;;;;;5070845;28;20036;-55
2022/09/14 03:04:09;;;;;;;4.30;1.00;;;18.30;62.90;;;;;;5070549;28;20077;-55
2022/09/14 03:06:38;;;;;;;2.45;0.80;;;18.30;62.90;;;;;;5070615;28;20361;-55
2022/09/14 03:09:05;;;;;;;2.58;1.00;;;18.20;62.90;;;;;;5070802;28;20028;-55
2022/09/14 03:11:34;;;;;;;2.50;0.90;;;18.20;63.00;;;;;;5071243;28;20032;-54
2022/09/14 03:14:02;;;;;;;3.92;0.90;;;18.20;62.70;;;;;;5069124;28;20020;-55
2022/09/14 03:16:31;;;;;;;4.22;1.20;;;18.30;62.80;;;;;;5070482;28;20384;-55
2022/09/14 03:18:58;;;;;;;2.63;0.90;;;18.20;62.80;;;;;;5068899;28;20027;-55
2022/09/14 03:21:27;;;;;;;2.42;0.80;;;18.20;62.60;;;;;;5069042;28;20467;-55
2022/09/14 03:23:56;;;;;;;3.13;1.17;;;18.20;62.30;;;;;;5069044;28;20021;-55
2022/09/14 03:26:27;;;;;;;3.95;0.90;;;18.20;62.40;;;;;;5069122;28;20032;-55
2022/09/14 03:28:58;;;;;;;3.20;0.90;;;18.20;61.90;;;;;;5069814;28;20390;-55
2022/09/14 03:31:26;;;;;;;2.70;0.82;;;18.20;62.10;;;;;;5069104;28;20665;-55
2022/09/14 03:33:57;;;;;;;2.75;0.85;;;18.20;62.00;;;;;;5068991;28;20016;-55
2022/09/14 03:36:27;;;;;;;2.40;0.85;;;18.30;61.80;;;;;;5070167;28;20044;-55
2022/09/14 03:38:58;;;;;;;1.85;0.85;;;18.30;61.30;;;;;;5069759;28;20036;-55
2022/09/14 03:41:27;;;;;;;1.83;0.80;;;18.30;61.40;;;;;;5070441;28;20383;-56
2022/09/14 03:43:55;;;;;;;2.17;0.85;;;18.30;61.30;;;;;;5069620;28;20021;-55
2022/09/14 03:46:24;;;;;;;2.83;0.90;;;18.30;61.10;;;;;;5070421;28;20107;-55
2022/09/14 03:48:54;;;;;;;2.40;0.90;;;18.30;61.10;;;;;;5068797;28;20031;-55
2022/09/14 03:51:23;;;;;;;3.88;0.85;;;18.30;61.30;;;;;;5070294;28;20021;-55
2022/09/14 03:53:51;;;;;;;3.15;1.08;;;18.30;61.30;;;;;;5070109;28;20533;-56
2022/09/14 03:56:21;;;;;;;4.38;1.10;;;18.30;61.30;;;;;;5072254;28;20056;-55
2022/09/14 03:58:50;;;;;;;3.47;1.05;;;18.30;61.10;;;;;;5073753;28;20025;-56
2022/09/14 04:01:21;;;;;;;3.13;0.90;;;18.30;61.20;;;;;;5073044;28;20086;-56
2022/09/14 04:03:49;;;;;;;3.95;1.13;;;18.30;61.20;;;;;;5073002;28;20036;-55
2022/09/14 04:06:18;;;;;;;3.47;0.93;;;18.30;60.80;;;;;;5073915;28;20514;-55
2022/09/14 04:08:47;;;;;;;6.05;1.00;;;18.30;60.60;;;;;;5073737;28;20104;-56
2022/09/14 04:11:20;;;;;;;2.13;0.77;;;18.40;60.60;;;;;;5073914;28;20506;-56
2022/09/14 04:13:50;;;;;;;2.58;0.90;;;18.40;60.40;;;;;;5073603;28;20467;-56
2022/09/14 04:16:22;;;;;;;6.55;1.13;;;18.40;60.10;;;;;;5073859;28;20078;-56
2022/09/14 04:18:51;;;;;;;3.47;1.08;;;18.40;60.00;;;;;;5073561;28;20028;-55
2022/09/14 04:21:22;;;;;;;1.90;0.90;;;18.40;59.80;;;;;;5073600;28;20029;-55
2022/09/14 04:23:55;;;;;;;3.45;0.90;;;18.40;59.40;;;;;;5073549;28;20471;-55
2022/09/14 04:26:27;;;;;;;2.05;0.80;;;18.40;59.30;;;;;;5073672;28;20104;-56
2022/09/14 04:28:56;;;;;;;2.13;0.90;;;18.40;59.10;;;;;;5071829;28;20028;-55
2022/09/14 04:31:24;;;;;;;2.65;0.90;;;18.40;58.80;;;;;;5073607;28;20464;-56
2022/09/14 04:33:55;;;;;;;2.80;0.82;;;18.40;59.40;;;;;;5073261;28;20024;-56
2022/09/14 04:36:28;;;;;;;2.70;1.00;;;18.40;59.40;;;;;;5073410;28;20036;-55
2022/09/14 04:39:02;;;;;;;2.42;0.90;;;18.40;59.20;;;;;;5071521;28;20737;-55
2022/09/14 04:41:32;;;;;;;5.38;1.00;;;18.40;59.20;;;;;;5073560;28;20029;-56
2022/09/14 04:44:00;;;;;;;2.67;0.88;;;18.40;58.90;;;;;;5072765;28;20029;-55
2022/09/14 04:46:35;;;;;;;2.30;0.82;;;18.40;59.00;;;;;;5073230;28;20029;-56
2022/09/14 04:49:05;;;;;;;3.45;1.00;;;18.40;59.00;;;;;;5073575;28;20021;-55
2022/09/14 04:51:34;;;;;;;2.03;0.88;;;18.40;59.10;;;;;;5073565;28;20056;-55
2022/09/14 04:54:04;;;;;;;3.60;0.90;;;18.50;59.00;;;;;;5072128;28;20074;-55
2022/09/14 04:56:35;;;;;;;2.60;0.82;;;18.40;59.00;;;;;;5073648;28;20028;-56
2022/09/14 04:59:04;;;;;;;3.88;0.90;;;18.50;59.00;;;;;;5073169;28;20025;-56
2022/09/14 05:01:35;;;;;;;3.97;1.08;;;18.50;58.80;;;;;;5073643;28;20455;-56
2022/09/14 05:04:06;;;;;;;3.53;1.00;;;18.50;58.80;;;;;;5073655;28;20028;-56
2022/09/14 05:06:36;;;;;;;2.75;1.00;;;18.50;59.10;;;;;;5073128;28;20033;-56
2022/09/14 05:09:07;;;;;;;2.08;0.90;;;18.50;59.20;;;;;;5072767;28;20023;-56
2022/09/14 05:11:36;;;;;;;4.35;1.02;;;18.50;58.90;;;;;;5073557;28;20040;-55
2022/09/14 05:14:04;;;;;;;4.80;1.13;;;18.50;59.30;;;;;;5071858;28;20416;-55
2022/09/14 05:16:37;;;;;;;2.53;0.80;;;18.50;59.90;;;;;;5073336;28;20037;-55
2022/09/14 05:19:08;;;;;;;3.10;1.00;;;18.50;59.40;;;;;;5073078;28;20364;-55
2022/09/14 05:21:37;;;;;;;2.90;0.73;;;18.50;59.40;;;;;;5073216;28;20125;-56
2022/09/14 05:24:11;;;;;;;3.28;0.98;;;18.50;59.50;;;;;;5073091;28;20017;-56
2022/09/14 05:26:40;;;;;;;3.28;0.80;;;18.50;59.40;;;;;;5072971;28;20450;-55
2022/09/14 05:29:13;;;;;;;1.70;0.80;;;18.50;59.60;;;;;;5072008;28;20032;-56
2022/09/14 05:31:41;;;;;;;2.92;0.88;;;18.40;59.70;;;;;;5071583;28;20025;-55
2022/09/14 05:34:10;;;;;;;3.85;0.90;;;18.40;59.70;;;;;;5072400;28;20078;-55
2022/09/14 05:36:39;;;;;;;2.47;1.00;;;18.50;59.90;;;;;;5072555;28;20024;-55
2022/09/14 05:39:08;;;;;;;2.47;0.98;;;18.50;59.90;;;;;;5072035;28;20368;-55
2022/09/14 05:41:37;;;;;;;2.25;1.00;;;18.40;59.90;;;;;;5071396;28;20383;-55
2022/09/14 05:44:06;;;;;;;2.78;0.98;;;18.50;59.60;;;;;;5072313;28;20021;-55
2022/09/14 05:46:34;;;;;;;3.60;1.08;;;18.50;59.10;;;;;;5072886;28;20093;-56
2022/09/14 05:49:02;;;;;;;2.72;0.98;;;18.50;59.00;;;;;;5072581;28;20032;-55
2022/09/14 05:51:30;;;;;;;2.35;0.77;;;18.50;58.40;;;;;;5072169;28;20092;-55
2022/09/14 05:53:59;;;;;;;1.48;0.80;;;18.50;58.20;;;;;;5072159;28;20024;-55
2022/09/14 05:56:30;;;;;;;2.63;0.90;;;18.50;58.20;;;;;;5072070;28;20129;-55
2022/09/14 05:58:59;;;;;;;2.57;0.90;;;18.50;57.90;;;;;;5071521;28;20030;-55
2022/09/14 06:01:31;;;;;;;2.25;0.90;;;18.50;58.10;;;;;;5070649;28;20036;-55
2022/09/14 06:04:03;;;;;;;3.05;1.00;;;18.50;58.20;;;;;;5071976;28;20029;-55
2022/09/14 06:06:31;;;;;;;;;;;18.50;58.10;;;;;;5072536;28;20066;-55
2022/09/14 06:09:00;;;;;;;2.40;0.90;;;18.50;58.10;;;;;;5071717;28;19904;-56
2022/09/14 06:11:35;;;;;;;3.45;0.90;;;18.50;58.30;;;;;;5071930;28;20107;-56
2022/09/14 06:14:04;;;;;;;1.20;0.70;;;18.50;58.40;;;;;;5071730;28;20467;-55
2022/09/14 06:16:31;;;;;;;3.55;0.80;;;18.50;58.60;;;;;;5071995;28;20156;-56
2022/09/14 06:19:00;;;;;;;3.67;0.98;;;18.50;58.80;;;;;;5069741;28;20025;-55
2022/09/14 06:21:33;;;;;;;2.72;0.95;;;18.50;59.20;;;;;;5071531;28;20067;-55
2022/09/14 06:24:02;;;;;;;2.30;0.80;;;18.50;59.60;;;;;;5071575;28;20050;-55
2022/09/14 06:26:30;;;;;;;3.45;1.00;;;18.50;59.90;;;;;;5071607;28;20107;-55
2022/09/14 06:28:58;;;;;;;2.42;0.80;;;18.50;60.10;;;;;;5071022;28;20024;-55
2022/09/14 06:31:26;;;;;;;1.60;0.80;;;18.50;60.30;;;;;;5070316;28;20498;-55
2022/09/14 06:33:55;;;;;;;2.65;0.90;;;18.50;60.40;;;;;;5071296;28;20028;-56
2022/09/14 06:36:25;;;;;;;3.00;0.90;;;18.50;60.60;;;;;;5071060;28;20374;-55
2022/09/14 06:38:54;;;;;;;3.10;0.90;;;18.50;60.70;;;;;;5069654;28;20037;-55
2022/09/14 06:41:27;;;;;;;2.45;1.00;;;18.50;60.80;;;;;;5071277;28;20035;-56
2022/09/14 06:43:57;;;;;;;2.88;0.77;;;18.50;61.00;;;;;;5070949;28;20134;-55
2022/09/14 06:46:31;;;;;;;2.53;0.80;;;18.50;61.00;;;;;;5069833;28;20039;-55
2022/09/14 06:49:06;;;;;;;3.22;1.10;;;18.50;61.00;;;;;;5070980;28;20044;-55
2022/09/14 06:51:45;;;;;;;2.30;0.73;;;18.50;61.20;;;;;;5071425;28;20036;-55
2022/09/14 06:54:15;;;;;;;1.55;0.75;;;18.50;61.10;;;;;;5069604;28;20032;-56
2022/09/14 06:56:44;;;;;;;2.20;0.80;;;18.40;61.20;;;;;;5070822;28;20024;-56
2022/09/14 06:59:15;;;;;;;2.25;0.80;;;18.40;61.40;;;;;;5070347;28;20023;-56
2022/09/14 07:01:53;;;;;;;3.08;0.90;;;18.40;61.60;;;;;;5070826;28;20070;-55
2022/09/14 07:04:21;;;;;;;2.85;0.98;;;18.40;61.90;;;;;;5070782;28;20384;-55
2022/09/14 07:06:50;;;;;;;4.13;1.00;;;18.40;62.10;;;;;;5070660;28;20055;-56
2022/09/14 07:09:19;;;;;;;3.35;1.00;;;18.40;62.20;;;;;;5070618;28;20063;-56
2022/09/14 07:11:48;;;;;;;3.90;1.15;;;18.40;62.30;;;;;;5070839;28;20024;-56
2022/09/14 07:14:16;;;;;;;2.28;0.90;;;18.40;62.30;;;;;;5070155;28;20104;-56
2022/09/14 07:16:44;;;;;;;1.95;0.75;;;18.50;62.60;;;;;;5070807;28;20435;-53
2022/09/14 07:19:14;;;;;;;4.45;1.00;;;18.50;62.70;;;;;;5070481;28;20029;-54
2022/09/14 07:21:42;;;;;;;4.05;1.10;;;18.50;62.90;;;;;;5069264;28;20112;-54
2022/09/14 07:24:14;;;;;;;3.83;0.90;;;18.50;63.10;;;;;;5069090;28;20028;-55
2022/09/14 07:26:42;;;;;;;4.32;1.10;;;18.50;63.30;;;;;;5070651;28;20025;-55
2022/09/14 07:29:13;;;;;;;3.00;1.00;;;18.50;63.40;;;;;;5069903;28;20492;-54
2022/09/14 07:31:43;;;;;;;5.40;1.10;;;18.50;63.80;;;;;;5070126;28;20032;-55
2022/09/14 07:34:12;;;;;;;3.40;1.10;;;18.50;63.70;;;;;;5070244;28;20066;-55
2022/09/14 07:36:41;;;;;;;3.95;1.10;;;18.50;63.80;;;;;;5070357;28;20025;-55
2022/09/14 07:39:13;;;;;;;3.88;1.20;;;18.50;63.80;;;;;;5069747;28;20049;-55
2022/09/14 07:41:44;;;;;;;2.92;0.95;;;18.40;64.00;;;;;;5070093;28;20056;-55
2022/09/14 07:44:18;;;;;;;3.75;1.10;;;18.40;64.20;;;;;;5069700;28;20029;-55
2022/09/14 07:46:46;;;;;;;4.75;1.15;;;18.40;64.40;;;;;;5068972;28;20060;-55
2022/09/14 07:49:16;;;;;;;4.80;1.13;;;18.40;64.70;;;;;;5068636;28;20133;-55
2022/09/14 07:51:45;;;;;;;3.90;1.13;;;18.40;64.80;;;;;;5070290;28;20104;-55
2022/09/14 07:54:15;;;;;;;3.20;1.10;;;18.40;65.10;;;;;;5070057;28;20375;-54
2022/09/14 07:56:44;;;;;;;5.78;1.17;;;18.40;65.10;;;;;;5070144;28;20028;-55
2022/09/14 07:59:13;;;;;;;4.18;1.40;;;18.40;65.20;;;;;;5068241;28;20383;-55
2022/09/14 08:01:41;;;;;;;6.25;1.30;;;18.40;65.60;;;;;;5070316;28;20032;-55
2022/09/14 08:04:09;;;;;;;3.20;1.05;;;18.40;65.70;;;;;;5070071;28;20052;-54
2022/09/14 08:06:39;;;;;;;6.45;1.48;;;18.40;65.70;;;;;;5070411;28;20044;-55
2022/09/14 08:09:07;;;;;;;4.35;1.30;;;18.40;65.80;;;;;;5070084;28;20116;-55
2022/09/14 08:11:36;;;;;;;3.70;1.10;;;18.30;65.70;;;;;;5070961;28;20040;-55
2022/09/14 08:14:12;;;;;;;4.22;1.35;;;18.30;65.70;;;;;;5070228;28;20055;-54
2022/09/14 08:16:41;;;;;;;3.38;1.33;;;18.40;66.00;;;;;;5069130;28;20072;-55
2022/09/14 08:19:19;;;;;;;4.55;1.10;;;18.30;65.90;;;;;;5069896;28;20024;-55
2022/09/14 08:21:48;;;;;;;5.57;1.40;;;18.30;65.90;;;;;;5070233;28;20119;-55
2022/09/14 08:24:20;;;;;;;3.67;1.25;;;18.30;66.10;;;;;;5068603;28;20032;-55
2022/09/14 08:26:48;;;;;;;4.75;1.30;;;18.30;66.00;;;;;;5070318;28;20499;-54
2022/09/14 08:29:18;;;;;;;5.03;1.20;;;18.40;66.10;;;;;;5069513;28;20020;-54
2022/09/14 08:31:47;;;;;;;3.65;1.27;;;18.30;65.90;;;;;;5070638;28;20456;-55
2022/09/14 08:34:16;;;;;;;4.03;1.17;;;18.30;65.90;;;;;;5069875;28;20060;-55
2022/09/14 08:36:45;;;;;;;4.85;1.52;;;18.40;66.00;;;;;;5070089;28;20043;-55
2022/09/14 08:39:15;;;;;;;4.05;1.25;;;18.40;66.10;;;;;;5069502;28;20462;-55
2022/09/14 08:41:55;;;;;;;5.57;1.50;;;18.40;66.10;;;;;;5068992;28;20045;-55
2022/09/14 08:44:30;;;;;;;6.00;1.30;;;18.40;66.20;;;;;;5065093;28;20044;-54
2022/09/14 08:47:11;;;;;;;4.63;1.30;;;18.40;66.10;;;;;;5070045;28;20040;-55
2022/09/14 08:50:08;;;;;;;5.68;1.40;;;18.40;66.30;;;;;;5053379;28;20068;-57
2022/09/14 08:52:38;;;;;;;4.20;1.35;;;18.40;66.20;;;;;;5059289;28;20040;-56
2022/09/14 08:55:37;;;;;;;7.88;1.52;;;18.40;66.60;;;;;;5059602;28;20116;-56
2022/09/14 08:58:24;;;;;;;6.50;1.55;;;18.40;66.80;;;;;;5089854;28;20437;-53
2022/09/14 09:01:01;;;;;;;5.05;1.30;;;18.30;66.80;;;;;;5091187;28;20048;-54
2022/09/14 09:04:10;;;;;;;8.55;1.50;;;18.40;66.50;;;;;;5092735;28;20512;-52
2022/09/14 09:06:51;;;;;;;9.50;2.38;;;18.40;66.50;;;;;;5052952;28;20044;-55
2022/09/14 09:09:30;;;;;;;10.88;3.97;;;18.40;66.30;;;;;;5078877;28;20047;-52
2022/09/14 09:11:59;;;;;;;15.02;5.55;;;18.40;66.20;;;;;;5086779;28;20028;-52
2022/09/14 09:14:40;;;;;;;15.40;6.85;;;18.40;66.10;;;;;;5074934;28;20127;-53
2022/09/14 09:17:27;;;;;;;23.20;9.97;;;18.50;66.20;;;;;;5061266;28;20040;-53
2022/09/14 09:19:58;;;;;;;20.27;7.78;;;18.50;66.40;;;;;;5074453;28;20051;-53
2022/09/14 09:22:35;;;;;;;27.90;7.67;;;18.50;66.40;;;;;;5064334;28;20036;-52
2022/09/14 09:25:06;;;;;;;18.02;7.32;;;18.50;66.40;;;;;;5057966;28;20275;-52
2022/09/14 09:27:34;;;;;;;16.02;4.88;;;18.50;66.00;;;;;;5062968;28;20114;-53
2022/09/14 09:30:02;;;;;;;16.45;4.70;;;18.50;66.20;;;;;;5061015;28;20033;-53
2022/09/14 09:32:31;;;;;;;11.20;4.05;;;18.50;66.30;;;;;;5048703;28;20376;-54
2022/09/14 09:35:34;;;;;;;7.70;2.55;;;18.50;66.50;;;;;;5050341;28;20048;-52
2022/09/14 09:38:18;;;;;;;6.00;2.20;;;18.60;66.50;;;;;;5054713;28;20140;-53
2022/09/14 09:41:20;;;;;;;7.05;2.08;;;18.60;66.10;;;;;;5060574;28;20036;-54
2022/09/14 09:44:02;;;;;;;6.40;2.08;;;18.60;66.30;;;;;;5047914;28;20032;-56
2022/09/14 09:46:36;;;;;;;6.43;1.98;;;18.60;66.30;;;;;;5052398;28;20082;-57
2022/09/14 09:49:29;;;;;;;7.60;1.88;;;18.60;66.00;;;;;;5059593;28;20490;-54
2022/09/14 09:52:09;;;;;;;7.95;1.63;;;18.60;65.90;;;;;;5065869;28;20111;-54
2022/09/14 09:54:42;;;;;;;4.47;1.50;;;18.50;66.20;;;;;;5069373;28;20017;-55
2022/09/14 09:57:26;;;;;;;5.25;1.70;;;18.50;66.40;;;;;;5063451;28;20480;-54
2022/09/14 10:00:22;;;;;;;4.97;1.45;;;18.60;66.60;;;;;;5050629;28;20037;-54
2022/09/14 10:02:52;;;;;;;4.68;1.52;;;18.60;66.20;;;;;;5068180;28;20017;-53
2022/09/14 10:05:21;;;;;;;5.13;1.48;;;18.60;65.90;;;;;;5050353;28;20118;-53
2022/09/14 10:07:50;;;;;;;6.88;1.75;;;18.60;65.70;;;;;;5062490;28;20410;-53
2022/09/14 10:10:20;;;;;;;7.38;1.33;;;18.60;65.60;;;;;;5090709;28;20019;-53
2022/09/14 10:12:52;;;;;;;6.33;1.47;;;18.60;65.40;;;;;;5090078;28;20020;-53
2022/09/14 10:15:25;;;;;;;11.02;1.70;;;18.50;65.40;;;;;;5090789;28;20266;-53
2022/09/14 10:17:55;;;;;;;6.13;1.50;;;18.60;65.40;;;;;;5089749;28;20413;-54
2022/09/14 10:20:24;;;;;;;5.15;1.15;;;18.50;65.30;;;;;;5087071;28;20410;-54
2022/09/14 10:22:53;;;;;;;4.35;1.30;;;18.60;65.40;;;;;;5056976;28;20059;-54
2022/09/14 10:25:24;;;;;;;4.60;1.50;;;18.60;65.40;;;;;;5050297;28;20102;-53
2022/09/14 10:27:55;;;;;;;4.28;1.50;;;18.50;65.40;;;;;;5051641;28;20053;-52
2022/09/14 10:30:24;;;;;;;4.55;1.40;;;18.60;65.60;;;;;;5048592;28;20436;-52
2022/09/14 10:32:55;;;;;;;5.70;1.30;;;18.60;65.70;;;;;;5050761;28;20032;-52
2022/09/14 10:35:35;;;;;;;5.80;1.30;;;18.60;65.80;;;;;;5049513;28;20380;-52
2022/09/14 10:38:24;;;;;;;5.13;1.42;;;18.60;66.00;;;;;;5050795;28;20071;-52
2022/09/14 10:41:34;;;;;;;4.38;1.30;;;18.60;66.30;;;;;;5051268;28;20045;-54
2022/09/14 10:44:20;;;;;;;4.25;1.20;;;18.60;66.30;;;;;;5001433;28;20370;-54
2022/09/14 10:47:13;;;;;;;5.88;1.30;;;18.50;65.80;;;;;;5049894;28;20044;-55
2022/09/14 10:50:18;;;;;;;5.30;1.15;;;18.60;65.90;;;;;;5063144;28;20093;-55
2022/09/14 10:53:16;;;;;;;3.60;1.10;;;18.50;65.90;;;;;;5057360;28;20025;-54
2022/09/14 10:56:00;;;;;;;5.05;1.30;;;18.50;66.00;;;;;;5073349;28;20032;-53
2022/09/14 10:58:28;;;;;;;3.92;1.20;;;18.50;66.00;;;;;;5070248;28;20033;-54
2022/09/14 11:01:24;;;;;;;5.25;1.30;;;18.50;66.10;;;;;;5068626;28;20071;-55
2022/09/14 11:04:01;;;;;;;2.50;0.95;;;18.50;66.20;;;;;;5056907;28;20072;-54
2022/09/14 11:06:32;;;;;;;3.45;1.25;;;18.50;66.30;;;;;;5055207;28;20437;-54
2022/09/14 11:09:12;;;;;;;5.15;1.30;;;18.50;66.20;;;;;;5074171;28;20448;-54
2022/09/14 11:12:07;;;;;;;4.00;1.20;;;18.50;66.10;;;;;;5065117;28;20024;-56
2022/09/14 11:14:38;;;;;;;6.00;1.40;;;18.50;66.10;;;;;;5060815;28;20029;-54
2022/09/14 11:17:20;;;;;;;3.97;1.35;;;18.50;66.20;;;;;;5059728;28;20043;-54
2022/09/14 11:20:25;;;;;;;4.30;1.15;;;18.60;66.20;;;;;;5061317;28;20032;-55
2022/09/14 11:23:11;;;;;;;5.70;1.30;;;18.60;66.10;;;;;;5058438;28;20031;-55
2022/09/14 11:25:42;;;;;;;5.15;1.35;;;18.60;66.00;;;;;;5072595;28;20400;-56
2022/09/14 11:28:34;;;;;;;4.03;1.30;;;18.60;66.00;;;;;;5049593;28;20035;-56
2022/09/14 11:31:15;;;;;;;4.90;1.27;;;18.60;66.00;;;;;;5048639;28;20080;-54
2022/09/14 11:33:48;;;;;;;5.00;1.30;;;18.60;65.90;;;;;;5049156;28;20040;-55
2022/09/14 11:36:32;;;;;;;4.22;1.13;;;18.60;65.90;;;;;;5062088;28;20032;-54
2022/09/14 11:39:19;;;;;;;4.35;1.23;;;18.60;65.90;;;;;;5087131;28;20047;-54
2022/09/14 11:42:05;;;;;;;4.63;1.20;;;18.60;65.90;;;;;;5056411;28;20348;-55
2022/09/14 11:44:45;;;;;;;4.30;1.30;;;18.60;65.90;;;;;;5064759;28;20048;-54
2022/09/14 11:47:19;;;;;;;5.68;1.30;;;18.60;65.90;;;;;;5058870;28;20053;-55
2022/09/14 11:50:19;;;;;;;4.90;1.10;;;18.60;65.90;;;;;;5048924;28;20108;-55
2022/09/14 11:52:54;;;;;;;5.43;1.55;;;18.60;65.90;;;;;;5036141;28;20052;-54
2022/09/14 11:55:23;;;;;;;3.72;1.30;;;18.60;66.00;;;;;;5055113;28;20025;-54
2022/09/14 11:57:51;;;;;;;6.15;1.27;;;18.60;66.00;;;;;;5047503;28;20147;-54
2022/09/14 12:00:23;;;;;;;3.53;1.13;;;18.60;66.10;;;;;;5056683;28;20039;-55
2022/09/14 12:03:19;;;;;;;4.60;1.30;;;18.60;66.10;;;;;;5056194;28;20068;-55
2022/09/14 12:05:49;;;;;;;4.13;1.08;;;18.60;66.10;;;;;;5066213;28;20052;-54
2022/09/14 12:08:31;;;;;;;7.82;1.40;;;18.60;66.10;;;;;;5060944;28;20435;-54
2022/09/14 12:11:09;;;;;;;3.85;1.10;;;18.60;66.20;;;;;;5088864;28;20028;-55
2022/09/14 12:13:38;;;;;;;4.65;1.20;;;18.60;66.30;;;;;;5089166;28;20024;-55
2022/09/14 12:16:09;;;;;;;3.35;1.40;;;18.60;66.30;;;;;;5053747;28;20029;-55
2022/09/14 12:18:39;;;;;;;3.55;1.30;;;18.60;66.40;;;;;;5060511;28;20056;-55
2022/09/14 12:21:25;;;;;;;5.03;1.42;;;18.60;66.40;;;;;;5064443;28;20041;-53
2022/09/14 12:23:56;;;;;;;3.35;1.30;;;18.70;66.50;;;;;;5067753;28;20029;-53
2022/09/14 12:26:31;;;;;;;5.32;1.20;;;18.70;66.50;;;;;;5053209;28;20348;-54
2022/09/14 12:29:25;;;;;;;5.22;1.40;;;18.70;66.40;;;;;;5052228;28;20032;-54
2022/09/14 12:31:53;;;;;;;5.72;1.50;;;18.70;66.30;;;;;;5057466;28;20029;-53
2022/09/14 12:34:30;;;;;;;5.05;1.25;;;18.70;66.30;;;;;;5065213;28;20036;-54
2022/09/14 12:37:29;;;;;;;4.15;1.48;;;18.70;66.30;;;;;;5091108;28;20039;-54
2022/09/14 12:40:35;;;;;;;4.35;1.30;;;18.70;66.30;;;;;;5092141;28;20060;-53
2022/09/14 12:43:32;;;;;;;4.20;1.25;;;18.70;66.30;;;;;;5002298;28;20508;-53
2022/09/14 12:46:21;;;;;;;4.28;1.52;;;18.70;66.30;;;;;;5036033;28;20037;-54
2022/09/14 12:48:51;;;;;;;4.60;1.40;;;18.70;66.30;;;;;;5059400;28;20170;-53
2022/09/14 12:51:28;;;;;;;4.10;1.25;;;18.70;66.40;;;;;;5052707;28;20056;-53
2022/09/14 12:54:08;;;;;;;6.25;1.55;;;18.70;66.40;;;;;;5051849;28;20329;-54
2022/09/14 12:57:07;;;;;;;3.95;1.27;;;18.70;66.40;;;;;;5052785;28;20112;-53
2022/09/14 12:59:45;;;;;;;5.72;1.50;;;18.70;66.40;;;;;;5051933;28;20060;-53
2022/09/14 13:02:58;;;;;;;4.13;1.48;;;18.70;66.50;;;;;;5052265;28;20090;-53
2022/09/14 13:05:31;;;;;;;4.72;1.50;;;18.70;66.50;;;;;;5055343;28;20036;-52
2022/09/14 13:07:59;;;;;;;3.92;1.30;;;18.70;66.60;;;;;;5073592;28;20206;-53
2022/09/14 13:10:36;;;;;;;6.43;1.75;;;18.70;66.60;;;;;;5052077;28;20025;-53
2022/09/14 13:13:37;;;;;;;4.00;1.58;;;18.70;66.60;;;;;;5057896;28;20021;-53
2022/09/14 13:16:07;;;;;;;5.22;1.40;;;18.70;66.60;;;;;;5007323;28;20064;-53
2022/09/14 13:18:37;;;;;;;5.18;1.50;;;18.70;66.70;;;;;;5057300;28;20029;-54
2022/09/14 13:21:19;;;;;;;7.10;1.50;;;18.70;66.70;;;;;;5067345;28;20040;-53
2022/09/14 13:23:48;;;;;;;4.47;1.52;;;18.70;66.70;;;;;;5062116;28;20086;-53
2022/09/14 13:26:30;;;;;;;4.88;1.35;;;18.60;67.30;;;;;;5052906;28;20140;-53